Time;durP1;ratioP1;P1;durP2;ratioP2;P2;SDS_P1;SDS_P2;PMS_P1;PMS_P2;Temp;Humidity;BMP_temperature;BMP_pressure;BME280_temperature;BME280_humidity;BME280_pressure;Samples;Min_cycle;Max_cycle;Signal;HPM_P1;HPM_P2
2023/03/21 00:01:55;;;;;;;31.00;23.13;;;;;;;12.73;68.83;100219.06;6211747;22;96742;-85
2023/03/21 00:04:22;;;;;;;27.70;21.95;;;;;;;12.81;68.83;100237.16;6238251;22;97312;-86
2023/03/21 00:06:47;;;;;;;29.45;23.25;;;;;;;12.73;69.35;100216.41;6212447;22;101471;-85
2023/03/21 00:09:13;;;;;;;28.48;23.02;;;;;;;12.69;69.35;100225.38;6212672;22;100850;-86
2023/03/21 00:11:39;;;;;;;29.08;23.42;;;;;;;12.81;68.87;100237.16;6212902;22;97192;-87
2023/03/21 00:14:07;;;;;;;30.90;22.98;;;;;;;12.85;69.07;100242.19;6187173;22;96967;-86
2023/03/21 00:16:34;;;;;;;31.38;23.83;;;;;;;12.68;69.20;100215.75;6211798;22;98251;-86
2023/03/21 00:19:02;;;;;;;28.00;22.95;;;;;;;12.84;68.72;100237.88;6186763;22;101378;-85
2023/03/21 00:21:31;;;;;;;29.70;22.92;;;;;;;12.62;69.20;100201.13;6213377;22;96716;-86
2023/03/21 00:23:57;;;;;;;31.85;23.30;;;;;;;12.49;69.41;100176.22;6188228;22;96997;-87
2023/03/21 00:26:23;;;;;;;30.52;23.40;;;;;;;12.82;69.24;100228.31;6211758;22;101739;-85
2023/03/21 00:28:49;;;;;;;27.13;22.35;;;;;;;12.82;69.33;100223.91;6238812;22;97967;-86
2023/03/21 00:31:15;;;;;;;30.88;22.80;;;;;;;12.78;69.36;100224.97;6210590;22;97116;-86
2023/03/21 00:33:41;;;;;;;34.45;23.25;;;;;;;12.80;69.41;100225.78;6211929;22;97163;-86
2023/03/21 00:36:08;;;;;;;32.30;23.75;;;;;;;12.72;69.67;100216.50;6238115;22;98046;-87
2023/03/21 00:38:35;;;;;;;32.72;22.02;;;;;;;12.64;69.27;100201.88;6187453;22;99261;-86
2023/03/21 00:41:05;;;;;;;31.55;22.70;;;;;;;12.78;69.30;100222.34;6186801;22;97217;-87
2023/03/21 00:43:31;;;;;;;29.33;22.83;;;;;;;12.79;69.49;100218.78;6213211;22;97502;-86
2023/03/21 00:45:58;;;;;;;31.67;22.67;;;;;;;12.77;69.25;100225.91;6211707;22;98915;-86
2023/03/21 00:48:24;;;;;;;29.80;22.45;;;;;;;12.83;69.21;100217.72;6184382;22;101343;-86
2023/03/21 00:50:52;;;;;;;29.42;23.50;;;;;;;12.75;69.23;100214.56;6210772;22;97442;-87
2023/03/21 00:53:17;;;;;;;33.58;23.20;;;;;;;12.86;68.87;100216.75;6212703;22;96800;-86
2023/03/21 00:55:45;;;;;;;29.33;22.25;;;;;;;12.87;68.38;100206.13;6237260;22;101156;-85
2023/03/21 00:58:10;;;;;;;29.45;22.38;;;;;;;12.90;68.25;100220.94;6186942;22;101057;-86
2023/03/21 01:00:37;;;;;;;29.80;22.33;;;;;;;12.88;68.45;100210.44;6212223;22;97131;-86
2023/03/21 01:03:06;;;;;;;29.40;21.48;;;;;;;12.98;68.04;100215.31;6210704;22;97231;-86
2023/03/21 01:08:28;;;;;;;29.65;21.02;;;;;;;12.96;67.08;100207.47;6238217;22;98348;-85
2023/03/21 01:10:55;;;;;;;32.10;22.95;;;;;;;12.95;67.16;100228.63;6186053;22;97044;-85
2023/03/21 01:13:22;;;;;;;29.30;21.85;;;;;;;12.93;67.83;100227.84;6212410;22;97212;-86
2023/03/21 01:15:50;;;;;;;30.95;21.60;;;;;;;12.88;67.86;100221.00;6209966;22;100026;-85
2023/03/21 01:18:17;;;;;;;29.95;24.33;;;;;;;12.92;68.05;100227.00;6186322;22;101556;-87
2023/03/21 01:20:44;;;;;;;30.17;22.83;;;;;;;12.89;67.85;100204.28;6237990;22;96758;-86
2023/03/21 01:23:11;;;;;;;24.50;19.38;;;;;;;12.96;67.82;100219.81;6185084;22;97300;-86
2023/03/21 01:25:36;;;;;;;23.08;19.05;;;;;;;12.94;67.07;100219.00;6211251;22;98570;-85
2023/03/21 01:28:03;;;;;;;22.35;17.95;;;;;;;12.71;67.19;100215.63;6185707;22;101194;-87
2023/03/21 01:30:28;;;;;;;22.83;17.00;;;;;;;12.80;66.81;100206.44;6211735;22;96651;-85
2023/03/21 01:32:54;;;;;;;24.35;18.33;;;;;;;12.87;66.00;100213.16;6186618;22;97024;-86
2023/03/21 01:35:20;;;;;;;21.52;17.30;;;;;;;12.81;66.03;100209.03;6212341;22;98449;-85
2023/03/21 01:37:47;;;;;;;22.13;16.15;;;;;;;12.75;66.31;100211.09;6185315;22;101206;-85
2023/03/21 01:40:22;;;;;;;22.20;16.33;;;;;;;12.60;66.27;100200.31;6236724;22;96729;-85
2023/03/21 01:42:55;;;;;;;22.20;15.65;;;;;;;12.57;66.27;100196.97;6214168;22;97854;-85
2023/03/21 01:45:59;;;;;;;20.42;15.02;;;;;;;12.61;66.92;100191.47;6212918;22;98020;-86
2023/03/21 01:48:42;;;;;;;21.08;15.73;;;;;;;12.75;66.34;100205.81;6215834;22;99794;-86
2023/03/21 01:51:09;;;;;;;22.30;15.40;;;;;;;12.66;66.15;100202.66;6214117;22;96748;-86
2023/03/21 01:53:39;;;;;;;19.20;14.85;;;;;;;12.73;65.94;100202.41;6190401;22;97168;-86
2023/03/21 01:56:12;;;;;;;23.08;16.33;;;;;;;12.52;66.15;100191.03;6186074;22;101693;-85
2023/03/21 01:58:54;;;;;;;21.30;16.52;;;;;;;12.44;65.79;100175.56;6192923;22;101864;-86
2023/03/21 02:01:41;;;;;;;23.98;17.30;;;;;;;12.57;65.96;100202.25;6196216;22;97054;-86
2023/03/21 02:04:08;;;;;;;21.00;17.05;;;;;;;12.56;65.88;100200.50;6189039;22;96972;-87
2023/03/21 02:07:09;;;;;;;;;;;;;;;12.58;65.92;100214.47;6206268;22;97898;-85
2023/03/21 02:09:48;;;;;;;23.58;16.65;;;;;;;12.50;65.88;100198.16;6215383;22;100815;-86
2023/03/21 02:12:18;;;;;;;21.95;16.60;;;;;;;12.53;65.39;100206.75;6212265;22;97388;-86
2023/03/21 02:14:47;;;;;;;23.33;16.10;;;;;;;12.56;65.09;100213.66;6186520;22;97240;-87
2023/03/21 02:17:46;;;;;;;19.50;15.48;;;;;;;12.66;65.02;100220.25;6216913;22;97147;-86
2023/03/21 02:20:44;;;;;;;21.73;17.13;;;;;;;12.65;65.17;100222.03;6214078;22;102236;-85
2023/03/21 02:23:39;;;;;;;19.38;15.25;;;;;;;12.60;65.17;100217.91;6082902;22;97279;-85
2023/03/21 02:26:26;;;;;;;23.33;18.05;;;;;;;12.52;65.31;100210.31;6158738;22;97388;-86
2023/03/21 02:28:58;;;;;;;21.58;16.08;;;;;;;12.46;65.70;100205.34;6236090;22;102026;-85
2023/03/21 02:31:35;;;;;;;21.55;15.75;;;;;;;12.58;65.46;100217.94;6186451;22;101017;-85
2023/03/21 02:34:07;;;;;;;21.08;17.00;;;;;;;12.59;65.21;100218.81;6186811;22;97391;-86
2023/03/21 02:36:54;;;;;;;22.05;17.40;;;;;;;12.59;65.76;100229.34;6212527;22;97253;-88
2023/03/21 02:39:32;;;;;;;21.30;17.10;;;;;;;12.57;66.12;100215.41;6238451;22;101317;-85
2023/03/21 02:42:20;;;;;;;20.77;16.30;;;;;;;12.14;66.13;100183.03;6212218;22;100758;-86
2023/03/21 02:44:57;;;;;;;22.50;16.88;;;;;;;12.41;65.94;100221.31;6185263;22;97154;-85
2023/03/21 02:47:38;;;;;;;23.13;16.60;;;;;;;12.48;66.31;100224.56;6237769;22;97285;-86
2023/03/21 02:50:26;;;;;;;22.80;17.42;;;;;;;12.47;66.42;100225.47;6187310;22;101569;-85
2023/03/21 02:52:53;;;;;;;24.30;17.77;;;;;;;12.36;66.91;100219.78;6212728;22;100559;-86
2023/03/21 02:55:23;;;;;;;23.42;17.63;;;;;;;12.35;66.69;100208.41;6188200;22;97464;-86
2023/03/21 02:57:55;;;;;;;22.40;17.42;;;;;;;12.38;66.44;100212.69;6189225;22;96780;-85
2023/03/21 03:00:24;;;;;;;20.80;17.08;;;;;;;12.34;66.78;100219.88;6236519;22;101187;-86
2023/03/21 03:02:50;;;;;;;25.05;18.40;;;;;;;12.37;67.30;100226.78;6184908;22;101351;-85
2023/03/21 03:05:19;;;;;;;22.02;17.42;;;;;;;12.29;67.55;100206.06;6240725;22;97016;-85
2023/03/21 03:08:03;;;;;;;22.75;18.17;;;;;;;12.28;68.13;100214.88;6186939;22;97206;-89
2023/03/21 03:10:57;;;;;;;24.83;18.52;;;;;;;12.42;67.23;100225.69;6213497;22;101833;-87
2023/03/21 03:13:32;;;;;;;25.58;18.50;;;;;;;12.30;67.16;100212.16;6212798;22;100533;-86
2023/03/21 03:16:27;;;;;;;26.17;18.63;;;;;;;12.34;67.00;100222.50;6239072;22;97352;-86
2023/03/21 03:18:59;;;;;;;23.02;18.63;;;;;;;12.22;67.45;100202.84;6186244;22;96748;-88
2023/03/21 03:21:48;;;;;;;24.20;18.10;;;;;;;12.34;66.99;100225.13;6213079;22;101067;-85
2023/03/21 03:24:23;;;;;;;24.52;18.65;;;;;;;12.26;66.96;100208.81;6187372;22;101483;-86
2023/03/21 03:26:51;;;;;;;22.23;17.65;;;;;;;12.39;66.96;100223.19;6238864;22;96811;-87
2023/03/21 03:29:19;;;;;;;23.67;17.58;;;;;;;12.26;66.98;100223.75;6212488;22;97348;-86
2023/03/21 03:32:14;;;;;;;23.13;18.40;;;;;;;12.26;67.10;100218.50;6187429;22;101987;-91
2023/03/21 03:34:44;;;;;;;24.00;18.20;;;;;;;12.34;67.08;100229.56;6205407;22;101340;-86
2023/03/21 03:37:13;;;;;;;22.33;17.88;;;;;;;12.35;66.82;100232.09;6187894;22;97116;-85
2023/03/21 03:39:45;;;;;;;24.90;18.48;;;;;;;12.36;66.60;100220.69;6211274;22;97218;-86
2023/03/21 03:42:24;;;;;;;24.27;17.98;;;;;;;12.33;66.52;100220.78;6212243;22;101550;-86
2023/03/21 03:44:56;;;;;;;25.02;18.27;;;;;;;12.34;66.86;100235.66;6214131;22;101219;-87
2023/03/21 03:47:25;;;;;;;23.83;18.20;;;;;;;12.33;66.57;100225.19;6187519;22;97130;-86
2023/03/21 03:50:31;;;;;;;24.85;17.88;;;;;;;12.28;66.64;100221.94;6213436;22;96980;-86
2023/03/21 03:53:28;;;;;;;24.90;17.88;;;;;;;12.17;66.53;100206.59;6185520;22;101008;-85
2023/03/21 03:55:55;;;;;;;27.77;19.08;;;;;;;12.18;67.08;100221.44;6186019;22;101285;-85
2023/03/21 03:58:22;;;;;;;24.75;18.85;;;;;;;12.27;66.80;100220.19;6213356;22;98075;-88
2023/03/21 04:00:48;;;;;;;25.67;19.27;;;;;;;12.06;66.99;100199.13;6186274;22;97000;-86
2023/03/21 04:03:14;;;;;;;25.10;19.13;;;;;;;12.19;67.09;100241.59;6212289;22;101425;-85
2023/03/21 04:05:40;;;;;;;25.13;17.90;;;;;;;12.12;67.62;100240.13;6187332;22;101350;-86
2023/03/21 04:08:07;;;;;;;27.27;19.00;;;;;;;12.10;67.06;100234.94;6212980;22;96707;-85
2023/03/21 04:10:40;;;;;;;22.67;18.20;;;;;;;12.09;67.76;100232.34;6189385;22;97114;-84
2023/03/21 04:13:06;;;;;;;27.50;19.13;;;;;;;12.06;67.11;100230.69;6186324;22;100011;-85
2023/03/21 04:16:01;;;;;;;25.65;20.25;;;;;;;12.09;67.90;100243.72;6191233;22;97760;-85
2023/03/21 04:18:27;;;;;;;25.80;18.63;;;;;;;12.08;67.74;100238.53;6187072;22;96674;-85
2023/03/21 04:20:53;;;;;;;25.55;18.88;;;;;;;12.02;67.14;100217.75;6187121;22;97042;-85
2023/03/21 04:23:19;;;;;;;25.40;19.63;;;;;;;12.16;67.46;100246.97;6187806;22;101369;-85
2023/03/21 04:25:45;;;;;;;25.05;19.80;;;;;;;11.98;67.34;100223.16;6186049;22;101421;-85
2023/03/21 04:28:11;;;;;;;31.90;20.38;;;;;;;12.00;68.07;100230.97;6212014;22;97272;-85
2023/03/21 04:30:51;;;;;;;24.88;18.55;;;;;;;12.07;67.55;100235.06;6192081;22;96813;-85
2023/03/21 04:33:19;;;;;;;23.33;18.13;;;;;;;12.12;67.48;100240.97;6213296;22;101932;-85
2023/03/21 04:35:55;;;;;;;23.67;19.42;;;;;;;12.06;67.50;100243.84;6213719;22;101259;-84
2023/03/21 04:38:22;;;;;;;26.73;18.67;;;;;;;12.00;67.83;100244.97;6189807;22;97116;-86
2023/03/21 04:40:48;;;;;;;26.48;19.17;;;;;;;12.04;67.40;100234.31;6186628;22;96963;-91
2023/03/21 04:43:14;;;;;;;27.52;20.65;;;;;;;12.10;67.62;100252.47;6185642;22;100430;-87
2023/03/21 04:45:40;;;;;;;28.42;20.55;;;;;;;12.02;67.54;100247.53;6185795;22;100847;-86
2023/03/21 04:48:05;;;;;;;22.77;18.88;;;;;;;12.07;67.66;100255.22;6187011;22;97133;-86
2023/03/21 04:50:31;;;;;;;27.02;20.00;;;;;;;12.06;67.28;100246.50;6187365;22;97442;-86
2023/03/21 04:52:58;;;;;;;25.33;19.63;;;;;;;12.11;67.25;100246.31;6212736;22;101217;-85
2023/03/21 04:55:26;;;;;;;28.33;20.95;;;;;;;11.92;67.43;100218.09;6187604;22;100549;-86
2023/03/21 04:57:52;;;;;;;26.08;20.25;;;;;;;12.02;67.31;100250.19;6212678;22;97112;-85
2023/03/21 05:00:20;;;;;;;27.00;20.38;;;;;;;11.95;67.22;100233.75;6186951;22;96833;-86
2023/03/21 05:02:46;;;;;;;29.95;21.60;;;;;;;11.95;67.68;100236.41;6186289;22;101615;-85
2023/03/21 05:05:12;;;;;;;27.98;20.88;;;;;;;12.00;67.47;100246.75;6237839;22;98162;-85
2023/03/21 05:07:39;;;;;;;29.02;20.73;;;;;;;11.86;67.65;100234.16;6186638;22;96658;-85
2023/03/21 05:10:06;;;;;;;27.55;20.73;;;;;;;11.95;67.67;100251.34;6212496;22;97661;-86
2023/03/21 05:12:32;;;;;;;31.23;21.70;;;;;;;11.89;68.07;100256.84;6211239;22;98224;-86
2023/03/21 05:14:58;;;;;;;29.42;21.60;;;;;;;11.84;68.00;100241.22;6211922;22;100163;-85
2023/03/21 05:17:27;;;;;;;33.15;23.33;;;;;;;11.89;67.86;100251.59;6212638;22;96714;-85
2023/03/21 05:19:57;;;;;;;27.38;21.17;;;;;;;11.96;68.08;100253.06;6213644;22;97305;-88
2023/03/21 05:22:25;;;;;;;26.20;20.10;;;;;;;11.98;67.98;100254.72;6213311;22;101217;-85
2023/03/21 05:24:54;;;;;;;36.03;23.23;;;;;;;11.90;67.89;100259.44;6189268;22;101721;-86
2023/03/21 05:27:33;;;;;;;30.95;22.55;;;;;;;11.87;68.63;100262.19;6215992;22;96686;-86
2023/03/21 05:30:07;;;;;;;25.38;20.58;;;;;;;11.89;68.43;100270.84;6187790;22;96982;-85
2023/03/21 05:32:33;;;;;;;29.20;21.17;;;;;;;11.85;68.41;100258.75;6237445;22;101893;-87
2023/03/21 05:34:59;;;;;;;29.08;21.20;;;;;;;11.90;68.53;100269.94;6187197;22;101793;-86
2023/03/21 05:37:26;;;;;;;30.08;21.88;;;;;;;11.98;68.22;100262.59;6213513;22;97174;-85
2023/03/21 05:39:51;;;;;;;30.20;22.25;;;;;;;12.00;68.35;100273.06;6188043;22;96802;-89
2023/03/21 05:42:28;;;;;;;28.05;20.67;;;;;;;11.83;68.05;100242.13;6214460;22;101188;-86
2023/03/21 05:44:54;;;;;;;29.83;21.27;;;;;;;11.83;68.54;100263.16;6213005;22;100918;-86
2023/03/21 05:47:25;;;;;;;30.75;21.40;;;;;;;11.92;68.45;100270.72;6214562;22;96771;-85
2023/03/21 05:49:53;;;;;;;29.30;21.15;;;;;;;11.91;68.39;100266.38;6188791;22;97121;-85
2023/03/21 05:52:20;;;;;;;28.88;21.83;;;;;;;11.98;68.05;100273.13;6186913;22;101049;-86
2023/03/21 05:54:46;;;;;;;29.17;20.90;;;;;;;11.99;67.98;100274.84;6187589;22;101955;-85
2023/03/21 05:57:13;;;;;;;31.08;22.40;;;;;;;11.99;68.33;100268.72;6212097;22;97339;-92
2023/03/21 06:00:01;;;;;;;27.35;21.45;;;;;;;12.04;67.70;100279.03;6196953;22;96986;-87
2023/03/21 06:02:34;;;;;;;31.95;21.73;;;;;;;12.11;67.82;100281.38;6195054;22;99875;-88
2023/03/21 06:05:07;;;;;;;29.95;22.45;;;;;;;11.97;68.21;100281.06;6196951;22;99610;-89
2023/03/21 06:07:33;;;;;;;29.20;21.58;;;;;;;11.98;68.60;100281.03;6193283;22;96818;-89
2023/03/21 06:10:06;;;;;;;30.52;22.58;;;;;;;11.93;68.53;100282.97;6197398;22;96841;-88
2023/03/21 06:12:32;;;;;;;30.15;22.17;;;;;;;11.93;68.38;100275.09;6194169;22;101321;-91
2023/03/21 06:15:05;;;;;;;28.45;22.05;;;;;;;11.92;68.31;100277.75;6196031;22;101201;-96
2023/03/21 06:17:36;;;;;;;30.35;22.83;;;;;;;12.02;67.95;100281.75;6220550;22;96890;-93
2023/03/21 06:20:07;;;;;;;30.48;23.05;;;;;;;12.03;68.26;100277.34;6194941;22;96763;-93
2023/03/21 06:22:55;;;;;;;32.40;23.05;;;;;;;11.90;68.45;100269.09;6223911;22;97470;-94
2023/03/21 06:25:39;;;;;;;33.08;22.88;;;;;;;11.54;68.89;100224.88;6196021;22;101234;-94
2023/03/21 06:28:07;;;;;;;29.15;22.35;;;;;;;11.84;68.38;100264.03;6195535;22;96933;-93
2023/03/21 06:30:38;;;;;;;31.00;22.75;;;;;;;11.74;68.51;100248.63;6197477;22;96895;-92
2023/03/21 06:33:12;;;;;;;29.40;22.38;;;;;;;11.85;68.79;100264.00;6197787;22;100592;-91
2023/03/21 06:35:37;;;;;;;31.88;23.13;;;;;;;12.04;68.65;100294.81;6193954;22;99990;-90
2023/03/21 06:38:07;;;;;;;29.63;22.60;;;;;;;12.05;68.55;100292.16;6189835;22;96795;-85
2023/03/21 06:40:33;;;;;;;29.52;22.20;;;;;;;11.89;68.83;100256.84;6212824;22;97410;-87
2023/03/21 06:43:00;;;;;;;32.70;23.02;;;;;;;11.68;68.40;100213.84;6216249;22;99963;-88
2023/03/21 06:45:26;;;;;;;30.17;23.05;;;;;;;11.77;68.33;100231.88;6192089;22;100142;-93
2023/03/21 06:47:52;;;;;;;29.52;21.77;;;;;;;12.08;68.08;100284.13;6191452;22;96663;-91
2023/03/21 06:50:44;;;;;;;31.48;22.85;;;;;;;11.78;67.88;100226.56;6202240;22;97071;-94
2023/03/21 06:53:10;;;;;;;27.70;20.70;;;;;;;12.10;67.53;100287.56;6192111;22;100175;-91
2023/03/21 06:55:55;;;;;;;29.88;19.63;;;;;;;12.04;67.09;100266.72;6222124;22;97292;-92
2023/03/21 06:58:22;;;;;;;27.70;19.25;;;;;;;12.03;66.73;100267.66;6230403;22;96714;-93
2023/03/21 07:00:48;;;;;;;24.83;19.23;;;;;;;11.99;66.05;100282.72;6177842;22;97099;-92
2023/03/21 07:03:15;;;;;;;26.40;18.45;;;;;;;12.17;66.61;100325.84;6192161;22;100282;-91
2023/03/21 07:05:43;;;;;;;26.77;18.52;;;;;;;12.12;66.23;100330.44;6193652;22;101209;-92
2023/03/21 07:08:13;;;;;;;24.27;18.05;;;;;;;12.12;66.06;100308.53;6190868;22;96693;-94
2023/03/21 07:10:45;;;;;;;22.92;17.77;;;;;;;12.27;65.97;100330.72;6194830;22;97376;-93
2023/03/21 07:13:13;;;;;;;;;;;;;;;12.14;66.07;100327.75;6194848;22;101953;-92
2023/03/21 07:15:50;;;;;;;23.90;17.67;;;;;;;11.93;66.00;100290.00;6193847;22;100166;-93
2023/03/21 07:18:16;;;;;;;25.25;19.42;;;;;;;12.03;65.73;100301.00;6169701;22;96709;-92
2023/03/21 07:20:48;;;;;;;25.45;17.98;;;;;;;12.02;66.11;100310.69;6193629;22;96764;-93
2023/03/21 07:23:16;;;;;;;25.13;18.55;;;;;;;11.61;65.90;100255.28;6191947;22;101510;-93
2023/03/21 07:25:42;;;;;;;26.38;18.98;;;;;;;11.92;66.79;100318.06;6215056;22;100305;-94
2023/03/21 07:28:08;;;;;;;23.33;18.00;;;;;;;11.92;66.14;100309.31;6190925;22;97123;-93
2023/03/21 07:30:35;;;;;;;24.33;18.38;;;;;;;11.61;66.57;100257.94;6190425;22;97166;-93
2023/03/21 07:33:01;;;;;;;29.55;18.73;;;;;;;11.91;66.08;100305.00;6190027;22;100762;-92
2023/03/21 07:35:30;;;;;;;22.50;17.23;;;;;;;11.67;66.23;100265.56;6189137;22;100316;-93
2023/03/21 07:38:12;;;;;;;21.33;17.17;;;;;;;11.75;66.51;100267.88;6214905;22;97156;-92
2023/03/21 07:40:38;;;;;;;23.80;17.80;;;;;;;11.61;66.83;100257.94;6190618;22;96750;-92
2023/03/21 07:43:09;;;;;;;24.88;18.90;;;;;;;12.06;66.72;100312.25;6215040;22;99040;-93
2023/03/21 07:45:38;;;;;;;25.75;18.10;;;;;;;11.63;66.90;100265.72;6186510;22;101093;-93
2023/03/21 07:48:06;;;;;;;26.00;19.20;;;;;;;11.66;66.99;100276.97;6190918;22;97004;-93
2023/03/21 07:50:45;;;;;;;23.77;17.52;;;;;;;11.57;67.55;100251.91;6192043;22;116426;-92
2023/03/21 07:53:11;;;;;;;23.25;17.33;;;;;;;11.53;67.40;100260.84;6190079;22;101438;-89
2023/03/21 07:55:37;;;;;;;28.73;17.63;;;;;;;12.06;67.34;100345.63;6214233;22;99449;-90
2023/03/21 07:58:03;;;;;;;20.90;15.90;;;;;;;11.87;67.49;100312.16;6188693;22;96740;-90
2023/03/21 08:00:29;;;;;;;22.23;15.70;;;;;;;12.03;67.58;100349.22;6215063;22;97340;-91
2023/03/21 08:02:56;;;;;;;22.52;17.05;;;;;;;12.11;67.19;100346.28;6189338;22;100279;-93
2023/03/21 08:05:27;;;;;;;23.55;16.52;;;;;;;11.90;67.05;100334.84;6240154;22;97553;-89
2023/03/21 08:07:53;;;;;;;20.98;15.32;;;;;;;11.84;68.00;100314.88;6215133;22;96762;-91
2023/03/21 08:10:19;;;;;;;25.35;17.25;;;;;;;11.98;67.69;100325.75;6215146;22;97023;-90
2023/03/21 08:12:45;;;;;;;24.48;17.25;;;;;;;12.08;68.12;100351.69;6215433;22;99962;-92
2023/03/21 08:15:12;;;;;;;23.55;17.90;;;;;;;12.14;68.05;100348.81;6189576;22;100061;-91
2023/03/21 08:17:38;;;;;;;26.25;17.92;;;;;;;12.16;68.15;100355.72;6214885;22;96679;-91
2023/03/21 08:20:09;;;;;;;26.52;17.88;;;;;;;12.11;68.38;100351.56;6189532;22;96896;-91
2023/03/21 08:22:35;;;;;;;24.30;17.65;;;;;;;12.15;68.13;100348.72;6215461;22;100856;-92
2023/03/21 08:25:09;;;;;;;22.48;16.42;;;;;;;12.12;67.92;100319.91;6213116;22;101246;-86
2023/03/21 08:27:38;;;;;;;25.00;18.23;;;;;;;12.28;68.04;100348.25;6189213;22;96810;-89
2023/03/21 08:30:07;;;;;;;23.05;17.92;;;;;;;12.02;68.36;100309.84;6187300;22;96925;-94
2023/03/21 08:32:34;;;;;;;27.20;17.20;;;;;;;12.22;67.75;100355.47;6217304;22;101535;-86
2023/03/21 08:35:01;;;;;;;20.85;15.40;;;;;;;12.08;67.11;100333.25;6212120;22;99861;-90
2023/03/21 08:37:27;;;;;;;23.40;16.67;;;;;;;12.28;66.75;100358.78;6194160;22;97262;-94
2023/03/21 08:39:56;;;;;;;19.83;14.50;;;;;;;12.39;66.44;100365.31;6205301;22;96971;-94
2023/03/21 08:42:27;;;;;;;18.42;14.65;;;;;;;12.18;67.20;100339.84;6185819;22;100677;-93
2023/03/21 08:44:58;;;;;;;19.88;14.13;;;;;;;11.96;66.74;100289.88;6188802;22;101146;-94
2023/03/21 08:47:24;;;;;;;23.37;14.57;;;;;;;12.39;66.05;100365.31;6214465;22;96971;-92
2023/03/21 08:49:52;;;;;;;20.48;14.68;;;;;;;12.18;66.53;100331.97;6212577;22;97494;-91
2023/03/21 08:52:18;;;;;;;24.05;15.63;;;;;;;12.07;65.78;100295.59;6236415;22;98373;-94
2023/03/21 08:54:44;;;;;;;24.60;16.73;;;;;;;12.16;65.85;100313.63;6213761;22;101143;-94
2023/03/21 08:57:10;;;;;;;25.20;17.88;;;;;;;12.37;65.60;100350.50;6215253;22;97065;-93
2023/03/21 08:59:38;;;;;;;29.05;19.13;;;;;;;12.02;66.32;100304.56;6190096;22;96683;-93
2023/03/21 09:02:04;;;;;;;26.10;18.65;;;;;;;12.46;66.37;100377.31;6215020;22;98659;-86
2023/03/21 09:04:30;;;;;;;24.42;17.63;;;;;;;12.59;66.25;100374.16;6186326;22;101739;-86
2023/03/21 09:06:55;;;;;;;24.95;19.02;;;;;;;12.51;66.23;100358.69;6208622;22;97591;-86
2023/03/21 09:09:21;;;;;;;26.95;18.13;;;;;;;12.46;65.60;100352.75;6212673;22;97359;-88
2023/03/21 09:11:47;;;;;;;26.63;19.30;;;;;;;12.45;65.90;100359.81;6185282;22;101894;-86
2023/03/21 09:14:12;;;;;;;25.20;17.65;;;;;;;12.49;65.31;100365.78;6212567;22;101196;-87
2023/03/21 09:16:38;;;;;;;25.25;18.33;;;;;;;12.45;65.53;100370.34;6241010;22;96617;-86
2023/03/21 09:19:07;;;;;;;27.92;19.13;;;;;;;12.50;65.67;100388.56;6214768;22;97489;-88
2023/03/21 09:21:34;;;;;;;25.77;17.63;;;;;;;12.51;65.47;100382.41;6190004;22;101003;-87
2023/03/21 09:24:00;;;;;;;24.67;17.90;;;;;;;12.37;65.39;100353.16;6189206;22;99996;-89
2023/03/21 09:26:27;;;;;;;23.75;17.25;;;;;;;12.57;65.55;100378.66;6214539;22;97033;-87
2023/03/21 09:28:53;;;;;;;24.60;18.42;;;;;;;12.56;65.54;100375.13;6214836;22;97141;-87
2023/03/21 09:31:22;;;;;;;22.52;17.25;;;;;;;12.44;65.34;100367.75;6188987;22;99737;-87
2023/03/21 09:33:49;;;;;;;29.50;18.98;;;;;;;12.54;65.02;100352.44;6214739;22;101067;-86
2023/03/21 09:36:15;;;;;;;27.58;18.00;;;;;;;12.57;65.11;100353.19;6189445;22;97159;-89
2023/03/21 09:38:43;;;;;;;24.30;18.48;;;;;;;12.63;65.34;100362.59;6215632;22;97018;-88
2023/03/21 09:41:45;;;;;;;24.98;18.63;;;;;;;12.68;65.04;100384.31;6239925;22;98401;-89
2023/03/21 09:44:43;;;;;;;29.13;19.20;;;;;;;12.67;65.16;100388.72;6214099;22;101313;-89
2023/03/21 09:47:20;;;;;;;25.30;19.15;;;;;;;12.75;65.25;100384.94;6210878;22;96843;-89
2023/03/21 09:50:09;;;;;;;22.33;17.50;;;;;;;12.83;64.94;100375.78;6215113;22;96945;-88
2023/03/21 09:52:49;;;;;;;26.08;18.50;;;;;;;12.94;63.86;100385.00;6166344;22;99784;-89
2023/03/21 09:55:18;;;;;;;22.98;16.65;;;;;;;12.96;63.22;100378.75;6189510;22;101298;-91
2023/03/21 09:58:19;;;;;;;22.63;18.03;;;;;;;12.94;62.70;100375.31;6215957;22;96695;-91
2023/03/21 10:00:48;;;;;;;25.27;18.35;;;;;;;13.09;62.71;100368.53;6216046;22;97267;-90
2023/03/21 10:03:23;;;;;;;24.08;17.85;;;;;;;13.05;62.43;100370.44;6190529;22;101348;-90
2023/03/21 10:05:51;;;;;;;26.67;18.17;;;;;;;13.02;61.90;100353.91;6191164;22;101183;-90
2023/03/21 10:08:18;;;;;;;24.05;18.45;;;;;;;13.12;62.15;100369.25;6190123;22;97031;-83
2023/03/21 10:10:47;;;;;;;22.85;17.30;;;;;;;13.07;62.21;100365.09;6215533;22;96962;-81
2023/03/21 10:13:16;;;;;;;23.63;18.17;;;;;;;13.18;61.76;100362.88;6239408;22;97791;-84
2023/03/21 10:15:42;;;;;;;23.27;18.15;;;;;;;13.30;61.69;100367.63;6212407;22;100773;-83
2023/03/21 10:18:13;;;;;;;23.50;18.92;;;;;;;13.36;61.70;100350.66;6214262;22;96707;-84
2023/03/21 10:20:40;;;;;;;23.70;17.83;;;;;;;13.52;60.94;100369.28;6214649;22;97184;-83
2023/03/21 10:23:11;;;;;;;19.77;17.02;;;;;;;13.38;61.41;100335.66;6213900;22;97645;-83
2023/03/21 10:25:40;;;;;;;20.33;17.40;;;;;;;13.70;60.88;100365.81;6241127;22;97694;-83
2023/03/21 10:28:11;;;;;;;21.02;17.83;;;;;;;13.79;60.31;100369.81;6212622;22;97017;-84
2023/03/21 10:30:41;;;;;;;24.40;17.60;;;;;;;13.89;59.74;100365.81;6213327;22;97373;-83
2023/03/21 10:33:12;;;;;;;24.25;16.95;;;;;;;13.96;59.25;100364.59;6186495;22;101556;-83
2023/03/21 10:35:40;;;;;;;26.95;19.42;;;;;;;13.87;59.37;100358.88;6187869;22;102044;-83
2023/03/21 10:38:06;;;;;;;26.58;19.17;;;;;;;13.92;59.39;100367.44;6187802;22;97127;-86
2023/03/21 10:40:32;;;;;;;22.45;17.95;;;;;;;14.08;58.79;100360.53;6213261;22;97154;-83
2023/03/21 10:43:20;;;;;;;25.23;20.35;;;;;;;14.33;57.70;100356.69;6213170;22;101680;-82
2023/03/21 10:45:47;;;;;;;22.88;19.08;;;;;;;14.45;58.08;100362.19;6238870;22;97743;-83
2023/03/21 10:48:12;;;;;;;25.58;19.58;;;;;;;14.58;57.79;100359.84;6214353;22;97092;-82
2023/03/21 10:50:38;;;;;;;26.17;18.92;;;;;;;14.57;57.00;100357.28;6215133;22;97178;-84
2023/03/21 10:53:15;;;;;;;28.00;19.52;;;;;;;14.44;56.26;100341.16;6238864;22;97849;-88
2023/03/21 10:55:40;;;;;;;25.55;19.25;;;;;;;14.41;55.79;100350.09;6212360;22;97547;-83
2023/03/21 10:58:17;;;;;;;23.63;19.17;;;;;;;14.32;55.88;100361.13;6238371;22;96721;-87
2023/03/21 11:00:44;;;;;;;20.75;18.02;;;;;;;14.32;56.30;100360.25;6214848;22;96792;-83
2023/03/21 11:03:28;;;;;;;23.73;17.83;;;;;;;14.26;56.06;100364.91;6214195;22;97689;-84
2023/03/21 11:06:32;;;;;;;25.27;17.65;;;;;;;14.30;56.06;100365.59;6214705;22;97749;-83
2023/03/21 11:09:07;;;;;;;23.52;20.50;;;;;;;14.19;55.76;100352.91;6166801;22;97055;-83
2023/03/21 11:11:39;;;;;;;24.08;20.77;;;;;;;14.19;55.78;100350.28;6240540;22;97153;-82
2023/03/21 11:14:08;;;;;;;27.02;22.00;;;;;;;14.09;55.41;100358.72;6213362;22;101558;-85
2023/03/21 11:16:42;;;;;;;31.58;22.65;;;;;;;13.97;55.33;100341.69;6215193;22;97725;-82
2023/03/21 11:19:16;;;;;;;36.20;23.00;;;;;;;14.06;54.71;100357.09;6214549;22;97082;-91
2023/03/21 11:21:42;;;;;;;28.50;22.38;;;;;;;14.08;55.49;100349.09;6194917;22;97087;-91
2023/03/21 11:24:18;;;;;;;28.58;22.20;;;;;;;14.03;55.51;100351.97;6195121;22;100298;-93
2023/03/21 11:26:47;;;;;;;29.02;21.65;;;;;;;14.00;56.02;100346.81;6191171;22;100418;-91
2023/03/21 11:29:19;;;;;;;28.27;21.77;;;;;;;13.95;55.87;100349.69;6214771;22;96805;-91